Time;durP1;ratioP1;P1;durP2;ratioP2;P2;SDS_P1;SDS_P2;PMS_P1;PMS_P2;Temp;Humidity;BMP_temperature;BMP_pressure;BME280_temperature;BME280_humidity;BME280_pressure;Samples;Min_cycle;Max_cycle;Signal;HPM_P1;HPM_P2
2021/06/11 00:00:11;;;;;;;2.45;1.70;;;21.70;97.00;;;;;;4183957;28;20064;-75
2021/06/11 00:02:14;;;;;;;2.67;1.85;;;21.80;96.80;;;;;;4183229;28;20044;-74
2021/06/11 00:04:17;;;;;;;3.45;1.65;;;21.90;96.70;;;;;;4184306;28;20057;-75
2021/06/11 00:06:22;;;;;;;3.40;1.90;;;21.90;96.50;;;;;;4181645;28;20053;-75
2021/06/11 00:08:25;;;;;;;3.22;1.92;;;21.90;96.40;;;;;;4183349;28;20056;-75
2021/06/11 00:10:29;;;;;;;6.18;2.05;;;22.00;96.50;;;;;;4179000;28;20053;-75
2021/06/11 00:12:32;;;;;;;3.35;1.80;;;22.00;96.40;;;;;;4180512;28;20509;-75
2021/06/11 00:14:36;;;;;;;2.92;1.60;;;21.80;96.50;;;;;;4180372;28;20491;-75
2021/06/11 00:16:38;;;;;;;3.63;1.52;;;21.90;96.40;;;;;;4179251;28;20116;-76
2021/06/11 00:18:42;;;;;;;4.13;1.75;;;21.80;96.30;;;;;;4180209;28;20122;-75
2021/06/11 00:20:45;;;;;;;1.92;1.63;;;21.70;96.40;;;;;;4181140;28;20060;-75
2021/06/11 00:22:50;;;;;;;4.35;1.70;;;21.60;96.70;;;;;;4180146;28;20053;-75
2021/06/11 00:24:53;;;;;;;5.60;1.80;;;21.60;96.60;;;;;;4180699;28;20057;-75
2021/06/11 00:26:56;;;;;;;2.63;1.50;;;21.70;96.50;;;;;;4180438;28;20049;-75
2021/06/11 00:28:59;;;;;;;4.70;1.60;;;22.00;96.00;;;;;;4180809;28;20057;-75
2021/06/11 00:31:02;;;;;;;1.60;1.50;;;22.00;96.10;;;;;;4180839;28;20061;-75
2021/06/11 00:33:09;;;;;;;7.05;1.60;;;21.90;96.10;;;;;;4180526;28;20452;-76
2021/06/11 00:35:13;;;;;;;5.57;1.55;;;21.90;95.90;;;;;;4181094;28;20071;-75
2021/06/11 00:37:16;;;;;;;2.15;1.70;;;22.00;95.70;;;;;;4182137;28;20114;-74
2021/06/11 00:39:21;;;;;;;4.22;1.40;;;21.90;95.90;;;;;;4183075;28;20053;-75
2021/06/11 00:41:24;;;;;;;2.88;1.50;;;21.90;95.80;;;;;;4183999;28;20061;-74
2021/06/11 00:43:27;;;;;;;2.17;1.45;;;21.70;95.80;;;;;;4183035;28;20520;-74
2021/06/11 00:45:30;;;;;;;3.97;1.58;;;21.80;95.60;;;;;;4179212;28;20498;-74
2021/06/11 00:47:33;;;;;;;2.85;1.45;;;21.90;95.40;;;;;;4178714;28;20061;-76
2021/06/11 00:49:36;;;;;;;3.47;1.40;;;22.00;95.10;;;;;;4181650;28;20053;-75
2021/06/11 00:51:39;;;;;;;3.72;1.50;;;22.10;95.00;;;;;;4177963;28;20144;-75
2021/06/11 00:53:42;;;;;;;3.15;1.27;;;22.00;95.10;;;;;;4179301;28;20075;-74
2021/06/11 00:55:48;;;;;;;4.18;1.42;;;22.00;95.20;;;;;;4180636;28;20053;-75
2021/06/11 00:57:51;;;;;;;2.58;1.50;;;21.90;95.40;;;;;;4180051;28;20049;-75
2021/06/11 00:59:55;;;;;;;1.42;1.20;;;22.00;94.90;;;;;;4182043;28;20064;-75
2021/06/11 01:01:58;;;;;;;1.95;1.33;;;21.90;95.10;;;;;;4179196;28;20053;-75
2021/06/11 01:04:01;;;;;;;4.65;1.38;;;21.80;95.30;;;;;;4179853;28;20048;-74
2021/06/11 01:06:05;;;;;;;6.10;1.92;;;21.70;95.50;;;;;;4178892;28;20041;-74
2021/06/11 01:08:10;;;;;;;1.55;1.30;;;21.70;95.50;;;;;;4186802;28;20110;-74
2021/06/11 01:10:14;;;;;;;2.88;1.45;;;21.70;95.60;;;;;;4192384;28;20048;-75
2021/06/11 01:12:19;;;;;;;1.77;1.52;;;21.60;95.70;;;;;;4182866;28;20057;-75
2021/06/11 01:14:22;;;;;;;8.05;1.20;;;21.70;95.50;;;;;;4182998;28;20108;-75
2021/06/11 01:16:25;;;;;;;3.88;1.35;;;21.70;95.50;;;;;;4183471;28;20425;-75
2021/06/11 01:18:29;;;;;;;2.17;1.40;;;21.80;95.10;;;;;;4182986;28;20452;-75
2021/06/11 01:20:33;;;;;;;2.92;1.23;;;21.70;95.20;;;;;;4183141;28;20432;-75
2021/06/11 01:22:52;;;;;;;1.38;0.93;;;21.60;95.40;;;;;;4182361;28;20056;-75
2021/06/11 01:25:04;;;;;;;3.30;1.20;;;21.60;95.60;;;;;;4182567;28;20138;-75
2021/06/11 01:27:09;;;;;;;1.73;1.35;;;21.50;95.50;;;;;;4184381;28;20068;-75
2021/06/11 01:29:15;;;;;;;2.15;1.17;;;21.60;95.50;;;;;;4187569;28;20053;-75
2021/06/11 01:31:20;;;;;;;2.35;1.40;;;21.60;95.50;;;;;;4187221;28;20056;-75
2021/06/11 01:33:26;;;;;;;3.08;1.65;;;21.50;95.60;;;;;;4186075;28;20548;-75
2021/06/11 01:35:39;;;;;;;2.10;1.65;;;21.60;95.40;;;;;;4183233;28;20052;-75
2021/06/11 01:37:43;;;;;;;1.48;1.30;;;21.50;95.60;;;;;;4182597;28;20045;-75
2021/06/11 01:39:50;;;;;;;3.50;1.35;;;21.50;95.60;;;;;;4182736;28;20057;-75
2021/06/11 01:41:55;;;;;;;1.88;1.27;;;21.50;95.90;;;;;;4182588;28;20057;-75
2021/06/11 01:44:01;;;;;;;3.65;1.38;;;21.40;95.90;;;;;;4184160;28;20061;-75
2021/06/11 01:46:06;;;;;;;3.55;1.52;;;21.50;95.70;;;;;;4184202;28;20068;-75
2021/06/11 01:48:10;;;;;;;4.50;1.50;;;21.50;95.80;;;;;;4183154;28;20095;-77
2021/06/11 01:50:17;;;;;;;2.60;1.17;;;21.40;95.90;;;;;;4182070;28;20464;-74
2021/06/11 01:52:20;;;;;;;3.63;1.83;;;21.50;95.90;;;;;;4184825;28;20057;-74
2021/06/11 01:54:24;;;;;;;2.17;1.50;;;21.50;95.60;;;;;;4195578;28;20053;-75
2021/06/11 01:56:28;;;;;;;2.70;1.60;;;21.50;95.70;;;;;;4197226;28;20150;-74
2021/06/11 01:58:32;;;;;;;3.50;1.60;;;21.50;95.80;;;;;;4196375;28;20535;-75
2021/06/11 02:00:38;;;;;;;3.05;1.60;;;21.50;95.80;;;;;;4194164;28;20057;-77
2021/06/11 02:02:42;;;;;;;2.13;1.50;;;21.50;95.60;;;;;;4197154;28;20044;-76
2021/06/11 02:04:46;;;;;;;2.63;1.35;;;21.60;95.20;;;;;;4197213;28;20049;-75
2021/06/11 02:06:50;;;;;;;4.57;1.40;;;21.40;95.90;;;;;;4191369;28;20053;-75
2021/06/11 02:08:54;;;;;;;7.10;1.90;;;21.30;96.10;;;;;;4181186;28;20041;-75
2021/06/11 02:10:57;;;;;;;8.35;1.80;;;21.40;95.80;;;;;;4182581;28;20057;-75
2021/06/11 02:13:01;;;;;;;3.15;1.85;;;21.40;95.80;;;;;;4181972;28;20444;-75
2021/06/11 02:15:07;;;;;;;5.03;1.70;;;21.40;96.00;;;;;;4180218;28;20049;-74
2021/06/11 02:17:12;;;;;;;3.65;1.85;;;21.40;96.00;;;;;;4182007;28;20095;-75
2021/06/11 02:19:17;;;;;;;6.88;1.70;;;21.40;96.00;;;;;;4182051;28;20616;-74
2021/06/11 02:21:22;;;;;;;2.55;1.77;;;21.30;96.30;;;;;;4181572;28;20049;-75
2021/06/11 02:23:25;;;;;;;5.70;1.90;;;21.20;96.30;;;;;;4183501;28;20053;-75
2021/06/11 02:25:29;;;;;;;5.05;1.90;;;21.20;96.30;;;;;;4182492;28;20057;-74
2021/06/11 02:27:33;;;;;;;2.88;1.58;;;21.40;95.80;;;;;;4181165;28;20056;-75
2021/06/11 02:29:36;;;;;;;4.63;1.85;;;21.40;96.00;;;;;;4180634;28;20049;-75
2021/06/11 02:31:40;;;;;;;6.32;1.85;;;21.40;95.60;;;;;;4180825;28;20053;-74
2021/06/11 02:33:45;;;;;;;3.28;1.52;;;21.40;96.00;;;;;;4180187;28;20106;-74
2021/06/11 02:35:48;;;;;;;2.40;1.73;;;21.40;95.80;;;;;;4183243;28;20057;-75
2021/06/11 02:37:52;;;;;;;4.13;2.25;;;21.50;95.60;;;;;;4185092;28;20068;-75
2021/06/11 02:39:55;;;;;;;2.97;1.83;;;21.40;96.20;;;;;;4185373;28;20567;-73
2021/06/11 02:42:02;;;;;;;2.75;1.50;;;21.20;96.20;;;;;;4185693;28;20052;-75
2021/06/11 02:44:08;;;;;;;4.68;1.48;;;21.40;95.80;;;;;;4184770;28;20087;-75
2021/06/11 02:46:16;;;;;;;3.63;1.50;;;21.40;95.80;;;;;;4184615;28;20041;-74
2021/06/11 02:48:23;;;;;;;2.28;1.25;;;21.40;95.90;;;;;;4185654;28;20509;-74
2021/06/11 02:50:35;;;;;;;3.30;1.63;;;21.40;96.00;;;;;;4182267;28;20126;-73
2021/06/11 02:52:41;;;;;;;3.80;1.52;;;21.30;96.10;;;;;;4181240;28;20049;-76
2021/06/11 02:54:45;;;;;;;7.63;1.48;;;21.40;95.70;;;;;;4181758;28;20111;-74
2021/06/11 02:56:52;;;;;;;2.42;1.42;;;21.50;95.30;;;;;;4197136;28;20070;-77
2021/06/11 02:59:00;;;;;;;4.18;1.30;;;21.60;95.40;;;;;;4186135;28;20118;-76
2021/06/11 03:01:05;;;;;;;1.23;1.10;;;21.50;95.50;;;;;;4179985;28;20049;-77
2021/06/11 03:03:15;;;;;;;4.20;1.02;;;21.50;95.40;;;;;;4180413;28;20111;-73
2021/06/11 03:05:20;;;;;;;2.30;1.50;;;21.50;95.40;;;;;;4179377;28;20053;-75
2021/06/11 03:07:30;;;;;;;;;;;21.50;95.50;;;;;;4181249;28;20230;-74
2021/06/11 03:09:35;;;;;;;3.60;1.30;;;21.50;95.30;;;;;;4185342;28;19921;-74
2021/06/11 03:11:41;;;;;;;2.22;1.20;;;21.30;95.70;;;;;;4185022;28;20053;-75
2021/06/11 03:13:46;;;;;;;3.08;1.20;;;21.40;95.40;;;;;;4185073;28;20053;-75
2021/06/11 03:15:51;;;;;;;6.10;1.20;;;21.40;95.30;;;;;;4180136;28;20599;-77
2021/06/11 03:17:58;;;;;;;2.60;1.30;;;21.50;95.20;;;;;;4178925;28;20552;-77
2021/06/11 03:20:06;;;;;;;4.45;1.40;;;21.60;95.00;;;;;;4180168;28;20502;-77
2021/06/11 03:22:14;;;;;;;4.03;1.60;;;21.60;95.10;;;;;;4178779;28;20084;-77
2021/06/11 03:24:27;;;;;;;5.28;1.55;;;21.60;94.70;;;;;;4180035;28;20060;-76
2021/06/11 03:26:34;;;;;;;2.60;1.05;;;21.60;94.90;;;;;;4178550;28;20107;-76
2021/06/11 03:28:43;;;;;;;2.33;1.40;;;21.60;95.00;;;;;;4180445;28;20497;-77
2021/06/11 03:30:49;;;;;;;3.40;1.40;;;21.50;95.20;;;;;;4179234;28;20468;-77
2021/06/11 03:32:58;;;;;;;3.05;1.20;;;21.40;95.30;;;;;;4179798;28;20482;-76
2021/06/11 03:35:05;;;;;;;6.22;1.60;;;21.40;95.60;;;;;;4179517;28;20441;-75
2021/06/11 03:37:12;;;;;;;2.72;1.60;;;21.30;95.70;;;;;;4179288;28;20464;-74
2021/06/11 03:39:21;;;;;;;2.47;1.60;;;21.20;96.00;;;;;;4180079;28;20064;-74
2021/06/11 03:41:24;;;;;;;2.60;1.20;;;21.10;96.10;;;;;;4180166;28;20118;-74
2021/06/11 03:43:29;;;;;;;3.85;1.45;;;21.20;96.10;;;;;;4179838;28;20136;-77
2021/06/11 03:45:32;;;;;;;2.72;1.60;;;21.30;95.80;;;;;;4179418;28;20060;-75
2021/06/11 03:47:38;;;;;;;4.07;1.63;;;21.20;96.00;;;;;;4179326;28;20138;-77
2021/06/11 03:49:43;;;;;;;3.70;1.20;;;21.30;95.80;;;;;;4178359;28;20068;-73
2021/06/11 03:51:47;;;;;;;2.85;1.40;;;21.10;96.10;;;;;;4179466;28;20119;-74
2021/06/11 03:53:51;;;;;;;3.65;1.48;;;21.10;96.30;;;;;;4179408;28;20061;-75
2021/06/11 03:56:00;;;;;;;4.28;1.48;;;21.20;96.00;;;;;;4179580;28;20522;-75
2021/06/11 03:58:08;;;;;;;5.28;1.40;;;21.20;96.10;;;;;;4179157;28;20053;-75
2021/06/11 04:00:12;;;;;;;5.60;1.63;;;21.30;96.00;;;;;;4179253;28;20045;-75
2021/06/11 04:02:15;;;;;;;2.13;1.60;;;21.40;95.80;;;;;;4179752;28;20111;-75
2021/06/11 04:04:19;;;;;;;3.37;1.23;;;21.40;95.70;;;;;;4179833;28;20094;-74
2021/06/11 04:06:29;;;;;;;2.50;1.42;;;21.30;95.70;;;;;;4182271;28;20103;-75
2021/06/11 04:08:34;;;;;;;4.63;1.70;;;21.40;95.60;;;;;;4181088;28;20049;-75
2021/06/11 04:10:39;;;;;;;;;;;21.30;95.80;;;;;;4180395;28;20052;-76
2021/06/11 04:12:47;;;;;;;6.40;1.40;;;21.40;95.70;;;;;;4180617;28;19983;-75
2021/06/11 04:14:53;;;;;;;1.65;1.20;;;21.40;95.30;;;;;;4180389;28;20051;-75
2021/06/11 04:16:58;;;;;;;5.95;1.80;;;21.50;95.00;;;;;;4180254;28;20083;-73
2021/06/11 04:19:02;;;;;;;5.13;1.83;;;21.50;95.50;;;;;;4179674;28;20187;-74
2021/06/11 04:21:09;;;;;;;4.57;1.60;;;21.50;95.10;;;;;;4179246;28;20127;-74
2021/06/11 04:23:12;;;;;;;8.32;1.98;;;21.50;95.20;;;;;;4179384;28;20059;-75
2021/06/11 04:25:16;;;;;;;2.80;1.60;;;21.50;95.20;;;;;;4182659;28;20045;-73
2021/06/11 04:27:21;;;;;;;7.82;1.90;;;21.60;95.20;;;;;;4185329;28;20049;-75
2021/06/11 04:29:28;;;;;;;4.22;1.77;;;21.60;95.40;;;;;;4184411;28;20485;-75
2021/06/11 04:31:31;;;;;;;5.97;1.90;;;21.60;95.00;;;;;;4180407;28;20053;-74
2021/06/11 04:33:35;;;;;;;10.77;2.30;;;21.70;94.50;;;;;;4179245;28;20053;-75
2021/06/11 04:35:41;;;;;;;9.90;2.20;;;21.70;95.10;;;;;;4178042;28;20146;-75
2021/06/11 04:37:44;;;;;;;9.95;2.63;;;21.60;95.10;;;;;;4179477;28;20083;-75
2021/06/11 04:39:47;;;;;;;9.68;2.13;;;21.60;95.30;;;;;;4177521;28;20055;-74
2021/06/11 04:41:51;;;;;;;12.77;2.10;;;21.60;95.30;;;;;;4180076;28;20056;-74
2021/06/11 04:43:57;;;;;;;6.72;1.80;;;21.60;95.60;;;;;;4190846;28;20035;-74
2021/06/11 04:46:01;;;;;;;5.03;2.03;;;21.60;95.40;;;;;;4191343;28;20065;-74
2021/06/11 04:48:05;;;;;;;7.78;2.25;;;21.60;95.30;;;;;;4182345;28;20103;-74
2021/06/11 04:50:10;;;;;;;17.92;3.80;;;21.70;94.90;;;;;;4182150;28;20781;-74
2021/06/11 04:52:13;;;;;;;12.40;2.50;;;21.70;95.60;;;;;;4182709;28;20053;-75
2021/06/11 04:54:15;;;;;;;15.38;2.70;;;21.70;95.30;;;;;;4182826;28;20065;-75
2021/06/11 04:56:19;;;;;;;17.27;2.72;;;21.60;95.50;;;;;;4182467;28;20412;-75
2021/06/11 04:58:22;;;;;;;11.40;2.40;;;21.50;96.00;;;;;;4181994;28;20433;-75
2021/06/11 05:00:29;;;;;;;11.07;2.67;;;21.60;95.40;;;;;;4183098;28;20052;-75
2021/06/11 05:02:34;;;;;;;11.73;2.75;;;21.70;95.20;;;;;;4184118;28;20110;-74
2021/06/11 05:04:37;;;;;;;8.45;2.55;;;21.70;95.60;;;;;;4182712;28;20060;-76
2021/06/11 05:06:40;;;;;;;9.60;2.80;;;21.70;95.00;;;;;;4185479;28;20049;-75
2021/06/11 05:08:44;;;;;;;8.93;2.80;;;21.70;95.60;;;;;;4182648;28;20057;-75
2021/06/11 05:10:47;;;;;;;12.77;3.67;;;21.70;95.80;;;;;;4181343;28;20041;-77
2021/06/11 05:12:50;;;;;;;13.30;3.55;;;21.70;96.30;;;;;;4183427;28;20049;-75
2021/06/11 05:14:53;;;;;;;11.65;3.97;;;21.70;96.40;;;;;;4183765;28;20048;-79
2021/06/11 05:16:56;;;;;;;8.00;3.70;;;21.70;96.30;;;;;;4183349;28;20065;-76
2021/06/11 05:19:03;;;;;;;9.70;3.45;;;21.80;95.90;;;;;;4182868;28;20057;-75
2021/06/11 05:21:06;;;;;;;8.88;3.17;;;21.90;95.90;;;;;;4181815;28;20115;-75
2021/06/11 05:23:09;;;;;;;9.32;3.63;;;22.00;95.70;;;;;;4187720;28;20056;-75
2021/06/11 05:25:13;;;;;;;6.15;3.45;;;22.00;95.40;;;;;;4189988;28;20057;-75
2021/06/11 05:27:16;;;;;;;11.05;3.30;;;22.00;95.80;;;;;;4184317;28;20516;-75
2021/06/11 05:29:19;;;;;;;4.88;3.42;;;22.00;95.70;;;;;;4182117;28;20099;-75
2021/06/11 05:31:22;;;;;;;8.80;3.97;;;22.00;95.80;;;;;;4182638;28;20052;-75
2021/06/11 05:33:25;;;;;;;4.28;3.83;;;22.00;95.70;;;;;;4182200;28;20056;-75
2021/06/11 05:35:30;;;;;;;5.55;3.50;;;22.10;96.00;;;;;;4183088;28;20544;-76
2021/06/11 05:37:33;;;;;;;8.90;3.47;;;22.00;96.00;;;;;;4182362;28;20106;-76
2021/06/11 05:39:36;;;;;;;5.57;3.35;;;22.00;96.10;;;;;;4182346;28;20053;-75
2021/06/11 05:41:39;;;;;;;11.15;4.57;;;22.10;95.40;;;;;;4186086;28;20072;-76
2021/06/11 05:43:43;;;;;;;4.70;3.40;;;22.00;95.90;;;;;;4187751;28;20052;-74
2021/06/11 05:45:46;;;;;;;5.38;3.50;;;22.00;95.40;;;;;;4189103;28;20064;-75
2021/06/11 05:47:49;;;;;;;4.93;3.53;;;22.00;95.60;;;;;;4185463;28;20449;-75
2021/06/11 05:49:52;;;;;;;9.70;3.25;;;21.90;95.80;;;;;;4184902;28;20061;-75
2021/06/11 05:51:57;;;;;;;11.30;3.20;;;21.90;95.60;;;;;;4184388;28;20567;-75
2021/06/11 05:54:02;;;;;;;6.85;3.50;;;21.90;95.60;;;;;;4183365;28;20053;-77
2021/06/11 05:56:05;;;;;;;10.65;3.60;;;21.90;95.90;;;;;;4184386;28;20064;-76
2021/06/11 05:58:11;;;;;;;12.80;4.35;;;21.90;96.00;;;;;;4183078;28;20111;-75
2021/06/11 06:00:15;;;;;;;10.45;5.05;;;21.80;95.80;;;;;;4182184;28;20512;-75
2021/06/11 06:02:18;;;;;;;12.70;5.05;;;21.80;96.20;;;;;;4181615;28;20559;-75
2021/06/11 06:04:21;;;;;;;9.30;5.10;;;21.70;96.30;;;;;;4182468;28;20164;-75
2021/06/11 06:06:25;;;;;;;18.73;5.47;;;21.90;96.00;;;;;;4182617;28;20559;-75
2021/06/11 06:08:30;;;;;;;24.27;5.53;;;21.90;96.30;;;;;;4181150;28;20535;-75
2021/06/11 06:10:33;;;;;;;29.00;5.90;;;21.90;96.00;;;;;;4182723;28;20049;-75
2021/06/11 06:12:36;;;;;;;34.95;5.70;;;21.90;96.40;;;;;;4180902;28;20064;-75
2021/06/11 06:14:39;;;;;;;26.15;5.88;;;22.00;96.10;;;;;;4182555;28;20045;-77
2021/06/11 06:16:42;;;;;;;17.02;4.40;;;22.10;96.10;;;;;;4181248;28;20542;-75
2021/06/11 06:18:45;;;;;;;23.63;4.85;;;22.10;96.00;;;;;;4182270;28;20053;-75
2021/06/11 06:20:48;;;;;;;14.68;4.47;;;22.10;95.90;;;;;;4182923;28;20045;-76
2021/06/11 06:22:51;;;;;;;15.25;4.78;;;21.90;96.10;;;;;;4183493;28;20052;-75
2021/06/11 06:24:56;;;;;;;24.95;5.22;;;21.90;96.10;;;;;;4182675;28;20056;-75
2021/06/11 06:26:59;;;;;;;12.95;3.80;;;21.80;96.40;;;;;;4182142;28;20575;-75
2021/06/11 06:29:02;;;;;;;12.45;3.85;;;21.90;96.20;;;;;;4183090;28;20059;-78
2021/06/11 06:31:05;;;;;;;14.98;3.70;;;22.00;96.20;;;;;;4194061;28;20501;-75
2021/06/11 06:33:08;;;;;;;11.75;3.60;;;22.00;95.90;;;;;;4197672;28;20052;-76
2021/06/11 06:35:13;;;;;;;11.98;3.70;;;22.00;95.90;;;;;;4196945;28;20052;-76
2021/06/11 06:37:16;;;;;;;7.90;3.65;;;21.80;96.20;;;;;;4197455;28;20045;-76
2021/06/11 06:39:19;;;;;;;12.00;3.20;;;21.60;96.20;;;;;;4196845;28;20041;-75
2021/06/11 06:41:24;;;;;;;4.45;2.35;;;21.80;95.80;;;;;;4192998;28;20067;-75
2021/06/11 06:43:27;;;;;;;6.72;2.30;;;21.80;94.90;;;;;;4189710;28;20052;-75
2021/06/11 06:45:32;;;;;;;6.50;2.28;;;22.00;95.00;;;;;;4191536;28;20045;-75
2021/06/11 06:47:35;;;;;;;8.52;2.65;;;22.10;94.70;;;;;;4183451;28;20064;-75
2021/06/11 06:49:38;;;;;;;6.40;2.78;;;22.30;94.70;;;;;;4179699;28;20053;-74
2021/06/11 06:51:41;;;;;;;12.15;3.00;;;22.30;94.70;;;;;;4181109;28;20402;-74
2021/06/11 06:53:45;;;;;;;10.35;2.90;;;22.20;94.80;;;;;;4180696;28;20053;-76
2021/06/11 06:55:48;;;;;;;6.45;2.30;;;22.20;94.80;;;;;;4181030;28;20064;-73
2021/06/11 06:57:52;;;;;;;5.72;1.60;;;22.20;94.60;;;;;;4185577;28;20045;-76
2021/06/11 06:59:55;;;;;;;6.28;2.10;;;22.20;94.60;;;;;;4186497;28;20060;-77
2021/06/11 07:02:00;;;;;;;6.35;2.40;;;22.40;94.50;;;;;;4185783;28;20118;-74
2021/06/11 07:04:03;;;;;;;4.03;2.10;;;22.50;94.40;;;;;;4185192;28;20053;-74
2021/06/11 07:06:07;;;;;;;5.72;2.22;;;22.70;94.00;;;;;;4194889;28;20121;-76
2021/06/11 07:08:10;;;;;;;8.45;2.33;;;22.80;93.90;;;;;;4192365;28;20045;-75
2021/06/11 07:10:13;;;;;;;7.75;2.30;;;22.90;93.70;;;;;;4193917;28;20057;-75
2021/06/11 07:12:16;;;;;;;10.70;2.38;;;23.00;93.40;;;;;;4182227;28;20068;-75
2021/06/11 07:14:20;;;;;;;5.40;2.47;;;23.10;93.50;;;;;;4182257;28;20045;-77
2021/06/11 07:16:23;;;;;;;7.65;2.10;;;23.20;93.40;;;;;;4183100;28;20053;-77
2021/06/11 07:18:27;;;;;;;4.32;2.20;;;23.20;93.20;;;;;;4184113;28;20053;-75
2021/06/11 07:20:30;;;;;;;7.00;2.22;;;23.30;92.80;;;;;;4184944;28;20045;-74
2021/06/11 07:22:33;;;;;;;6.93;2.15;;;23.40;93.00;;;;;;4180937;28;20045;-75
2021/06/11 07:24:36;;;;;;;6.95;2.05;;;23.60;92.90;;;;;;4180667;28;20052;-75
2021/06/11 07:26:39;;;;;;;6.55;2.17;;;23.80;92.60;;;;;;4179039;28;20059;-75
2021/06/11 07:28:42;;;;;;;10.57;2.28;;;23.90;92.30;;;;;;4179530;28;20053;-74
2021/06/11 07:30:47;;;;;;;6.28;1.88;;;24.10;92.30;;;;;;4180264;28;20049;-75
2021/06/11 07:32:50;;;;;;;5.95;2.20;;;24.10;92.00;;;;;;4178812;28;20055;-74
2021/06/11 07:34:53;;;;;;;8.93;2.30;;;24.10;92.20;;;;;;4181276;28;20410;-74
2021/06/11 07:36:56;;;;;;;12.88;2.70;;;23.80;91.70;;;;;;4181226;28;20044;-75
2021/06/11 07:38:59;;;;;;;14.65;3.08;;;23.90;92.00;;;;;;4182160;28;20057;-75
2021/06/11 07:41:03;;;;;;;8.40;2.33;;;23.80;92.00;;;;;;4184842;28;20429;-75
2021/06/11 07:43:06;;;;;;;10.93;2.63;;;23.90;92.20;;;;;;4183693;28;20049;-75
2021/06/11 07:45:10;;;;;;;3.63;1.63;;;24.30;92.10;;;;;;4181859;28;20120;-76
2021/06/11 07:47:14;;;;;;;8.60;1.67;;;24.40;91.10;;;;;;4184162;28;20051;-76
2021/06/11 07:49:17;;;;;;;6.85;1.77;;;24.50;91.00;;;;;;4182949;28;20130;-76
2021/06/11 07:51:20;;;;;;;9.23;1.52;;;24.70;90.90;;;;;;4188061;28;20053;-76
2021/06/11 07:53:23;;;;;;;12.55;1.90;;;24.50;90.80;;;;;;4188341;28;20071;-75
2021/06/11 07:55:26;;;;;;;6.47;2.20;;;24.60;90.40;;;;;;4186625;28;20053;-75
2021/06/11 07:57:29;;;;;;;10.80;1.70;;;24.30;90.70;;;;;;4185154;28;20049;-76
2021/06/11 07:59:32;;;;;;;6.30;1.80;;;24.40;90.90;;;;;;4186419;28;20502;-74
2021/06/11 08:01:36;;;;;;;7.38;1.90;;;24.20;90.30;;;;;;4185519;28;20045;-77
2021/06/11 08:03:40;;;;;;;7.93;1.60;;;24.20;90.60;;;;;;4183540;28;20048;-75
2021/06/11 08:05:43;;;;;;;7.43;1.73;;;24.50;90.70;;;;;;4180492;28;20053;-74
2021/06/11 08:07:47;;;;;;;5.95;1.70;;;24.60;90.40;;;;;;4183585;28;20041;-75
2021/06/11 08:09:51;;;;;;;4.80;1.70;;;24.60;90.10;;;;;;4179600;28;20119;-74
2021/06/11 08:11:54;;;;;;;4.30;1.35;;;24.50;90.30;;;;;;4166078;28;20137;-74
2021/06/11 08:13:58;;;;;;;8.82;1.52;;;24.70;90.00;;;;;;4185478;28;20429;-76
2021/06/11 08:16:00;;;;;;;8.88;1.65;;;24.80;90.20;;;;;;4184439;28;20060;-72
2021/06/11 08:18:05;;;;;;;3.78;1.63;;;24.90;90.00;;;;;;4194346;28;20064;-75
2021/06/11 08:20:11;;;;;;;6.20;1.38;;;25.00;88.60;;;;;;4181270;28;20057;-73
2021/06/11 08:22:14;;;;;;;7.40;1.50;;;25.20;89.70;;;;;;4175458;28;20053;-73
2021/06/11 08:24:17;;;;;;;9.32;1.63;;;25.00;89.30;;;;;;4174709;28;20053;-78
2021/06/11 08:26:20;;;;;;;6.45;1.60;;;24.60;89.40;;;;;;4166219;28;20482;-75
2021/06/11 08:28:24;;;;;;;6.70;2.00;;;24.40;89.70;;;;;;4174281;28;20119;-75
2021/06/11 08:30:29;;;;;;;4.95;1.40;;;24.50;90.30;;;;;;4186890;28;20049;-73
2021/06/11 08:32:32;;;;;;;;;;;24.60;89.80;;;;;;4185920;28;20383;-74
2021/06/11 08:34:37;;;;;;;4.13;1.20;;;24.70;89.40;;;;;;4185208;28;20293;-73
2021/06/11 08:36:41;;;;;;;3.38;1.30;;;24.60;89.80;;;;;;4179397;28;20569;-75
2021/06/11 08:38:44;;;;;;;6.50;1.50;;;24.40;90.10;;;;;;4166321;28;20449;-73
2021/06/11 08:40:48;;;;;;;6.05;1.65;;;24.70;89.90;;;;;;4166440;28;20053;-76
2021/06/11 08:42:51;;;;;;;10.27;1.40;;;24.90;89.40;;;;;;4166294;28;20050;-75
2021/06/11 08:44:56;;;;;;;5.75;1.65;;;24.90;88.50;;;;;;4164708;28;20053;-75
2021/06/11 08:46:59;;;;;;;;;;;25.00;87.80;;;;;;4167366;28;20057;-75
2021/06/11 08:49:02;;;;;;;3.00;1.50;;;25.20;87.80;;;;;;4166784;28;20454;-75
2021/06/11 08:51:09;;;;;;;6.35;1.60;;;25.00;88.50;;;;;;4166988;28;20059;-74
2021/06/11 08:53:17;;;;;;;5.30;1.70;;;24.80;89.50;;;;;;4164736;28;20054;-75
2021/06/11 08:55:20;;;;;;;5.25;1.60;;;25.00;89.10;;;;;;4161031;28;20137;-73
2021/06/11 08:57:24;;;;;;;8.90;2.05;;;25.10;88.20;;;;;;4149674;28;20050;-75
2021/06/11 08:59:27;;;;;;;5.73;1.60;;;25.20;89.20;;;;;;4155292;28;20053;-76
2021/06/11 09:01:34;;;;;;;3.75;1.58;;;25.20;88.20;;;;;;4166062;28;20116;-76
2021/06/11 09:03:44;;;;;;;5.45;1.38;;;25.20;88.60;;;;;;4166665;28;20049;-76
2021/06/11 09:06:04;;;;;;;9.85;1.50;;;25.30;88.20;;;;;;4165710;28;20135;-74
2021/06/11 09:08:18;;;;;;;2.47;1.40;;;25.30;88.90;;;;;;4167900;28;20064;-78
2021/06/11 09:10:23;;;;;;;4.97;1.60;;;25.40;88.10;;;;;;4166965;28;20057;-73
2021/06/11 09:12:28;;;;;;;5.32;1.35;;;25.50;86.90;;;;;;4155109;28;20054;-73
2021/06/11 09:14:31;;;;;;;;;;;25.70;85.70;;;;;;4150104;28;20054;-74
2021/06/11 09:16:45;;;;;;;8.02;1.65;;;25.90;84.00;;;;;;4149787;28;19929;-76
2021/06/11 09:18:52;;;;;;;7.25;1.70;;;25.80;83.70;;;;;;4152734;28;20053;-75
2021/06/11 09:20:55;;;;;;;3.33;1.80;;;25.90;83.80;;;;;;4154575;28;20080;-73
2021/06/11 09:23:09;;;;;;;4.93;1.80;;;25.90;83.60;;;;;;4153544;28;20542;-73
2021/06/11 09:25:28;;;;;;;5.47;2.08;;;26.10;81.90;;;;;;4151123;28;20062;-75
2021/06/11 09:27:37;;;;;;;7.45;2.50;;;26.10;81.10;;;;;;4152562;28;20089;-74
2021/06/11 09:29:45;;;;;;;9.65;1.80;;;26.10;81.00;;;;;;4180231;28;20052;-74
2021/06/11 09:32:17;;;;;;;9.38;2.00;;;25.90;81.50;;;;;;4174040;28;20070;-75
2021/06/11 09:34:33;;;;;;;15.27;2.40;;;26.10;81.70;;;;;;4149707;28;20125;-73
2021/06/11 09:36:59;;;;;;;6.45;2.50;;;26.30;81.20;;;;;;4180803;28;20568;-75
2021/06/11 09:39:16;;;;;;;7.22;2.28;;;26.40;81.60;;;;;;4145482;28;20054;-75
2021/06/11 09:42:12;;;;;;;5.63;2.08;;;26.50;81.10;;;;;;4154854;28;20072;-74
2021/06/11 09:44:26;;;;;;;5.55;2.03;;;26.70;82.00;;;;;;4154928;28;20111;-75
2021/06/11 09:46:46;;;;;;;10.25;2.25;;;26.80;80.30;;;;;;4154866;28;20116;-73
2021/06/11 09:48:58;;;;;;;6.43;2.08;;;26.90;79.90;;;;;;4155703;28;20057;-75
2021/06/11 09:51:17;;;;;;;8.10;1.90;;;26.90;79.10;;;;;;4155079;28;20053;-73
2021/06/11 09:53:32;;;;;;;7.60;1.60;;;26.80;78.60;;;;;;4154675;28;20050;-76
2021/06/11 09:55:45;;;;;;;9.10;1.92;;;26.80;79.40;;;;;;4171474;28;20132;-73
2021/06/11 09:58:13;;;;;;;7.47;2.00;;;26.90;79.90;;;;;;4173251;28;20049;-76
2021/06/11 10:00:33;;;;;;;5.82;2.60;;;27.10;79.60;;;;;;4160681;28;20854;-75
2021/06/11 10:02:41;;;;;;;9.18;2.10;;;27.10;80.50;;;;;;4152229;28;20050;-74
2021/06/11 10:04:56;;;;;;;9.45;1.90;;;27.10;81.40;;;;;;4173392;28;20116;-73
2021/06/11 10:07:04;;;;;;;7.03;2.22;;;27.00;79.30;;;;;;4153330;28;20057;-76
2021/06/11 10:09:19;;;;;;;12.43;2.00;;;27.20;81.00;;;;;;4168976;28;20511;-75
2021/06/11 10:11:43;;;;;;;5.78;2.00;;;27.30;80.60;;;;;;4162308;28;20064;-74
2021/06/11 10:13:55;;;;;;;11.88;2.17;;;27.20;79.60;;;;;;4163763;28;20054;-75
2021/06/11 10:16:08;;;;;;;5.43;2.10;;;27.30;80.10;;;;;;4191839;28;20065;-78
2021/06/11 10:18:20;;;;;;;6.45;1.77;;;27.40;79.20;;;;;;4190679;28;20074;-76
2021/06/11 10:20:35;;;;;;;6.53;1.83;;;27.50;80.30;;;;;;4182772;28;20049;-79
2021/06/11 10:22:41;;;;;;;11.45;2.13;;;27.50;79.20;;;;;;4165472;28;20064;-77
2021/06/11 10:25:07;;;;;;;6.07;1.85;;;27.60;78.80;;;;;;4147029;28;20046;-77
2021/06/11 10:27:24;;;;;;;8.18;2.28;;;27.50;79.40;;;;;;4170165;28;20541;-77
2021/06/11 10:29:43;;;;;;;7.60;2.10;;;27.40;78.50;;;;;;4169041;28;20061;-76
2021/06/11 10:31:51;;;;;;;3.97;1.83;;;27.40;77.90;;;;;;4167665;28;20045;-74
2021/06/11 10:34:04;;;;;;;8.02;2.40;;;27.40;77.20;;;;;;4147748;28;20079;-77
2021/06/11 10:36:54;;;;;;;12.35;2.42;;;27.40;76.70;;;;;;4163831;28;20659;-75
2021/06/11 10:39:02;;;;;;;8.63;1.83;;;27.30;77.30;;;;;;4164337;28;20046;-78
2021/06/11 10:41:09;;;;;;;8.38;1.98;;;27.40;77.50;;;;;;4155150;28;20053;-76
2021/06/11 10:43:23;;;;;;;3.65;1.50;;;27.40;78.20;;;;;;4158614;28;20053;-75
2021/06/11 10:46:01;;;;;;;4.03;1.88;;;27.40;77.60;;;;;;4147299;28;20089;-76
2021/06/11 10:48:08;;;;;;;4.80;1.63;;;27.40;78.40;;;;;;4131360;28;20069;-76
2021/06/11 10:50:15;;;;;;;4.53;2.13;;;27.50;76.70;;;;;;4147778;28;20483;-75
2021/06/11 10:52:31;;;;;;;4.40;1.60;;;27.40;75.10;;;;;;4155139;28;20378;-74
2021/06/11 10:54:38;;;;;;;9.07;1.90;;;27.20;75.90;;;;;;4154660;28;20155;-77